AXB54S VOMD-VEBN
Flight info
| Callsign | AXB54S |
|---|---|
| Flight time | N/A |
| Altitude | 40000 |
| Route | MDI J15 ADKAL W42 BIA/N0483F410 Q22 VIRAM W57 SAKRO Q22 HIA Q16 PUPAM P646 BBN |
| Aircraft | A359/H-SDE2E3GHIJ3J4J5LM1ORWXY/LB1D1 |
Departure
| Time | N/A |
|---|---|
| Airport | Madurai Airport (VOMD) |
Arrival
| Time | 2026-04-24 14:08 |
|---|---|
| Airport | Lal Bahadur Shastri International Airport (VEBN) |
| Time | Latitude | Longitude | Altitude | Speed | Heading |
|---|---|---|---|---|---|
| 2026-04-24 13:21 | 22.80239 | 83.19566 | 39834 ft | 541 kts | 35° |
| 2026-04-24 13:22 | 22.86071 | 83.24720 | 39840 ft | 541 kts | 35° |
| 2026-04-24 13:22 | 22.91899 | 83.29879 | 39846 ft | 540 kts | 35° |
| 2026-04-24 13:23 | 22.97717 | 83.35035 | 39845 ft | 540 kts | 35° |
| 2026-04-24 13:23 | 23.03503 | 83.40168 | 39852 ft | 539 kts | 35° |
| 2026-04-24 13:24 | 23.09309 | 83.45324 | 39852 ft | 539 kts | 35° |
| 2026-04-24 13:24 | 23.15097 | 83.50473 | 39860 ft | 538 kts | 35° |
| 2026-04-24 13:25 | 23.20899 | 83.55636 | 39858 ft | 538 kts | 35° |
| 2026-04-24 13:25 | 23.26692 | 83.60796 | 39870 ft | 538 kts | 35° |
| 2026-04-24 13:26 | 23.32479 | 83.65958 | 39864 ft | 538 kts | 35° |
| 2026-04-24 13:26 | 23.38261 | 83.71122 | 39869 ft | 538 kts | 35° |
| 2026-04-24 13:27 | 23.44038 | 83.76288 | 39866 ft | 537 kts | 35° |
| 2026-04-24 13:27 | 23.49815 | 83.81462 | 39864 ft | 537 kts | 35° |
| 2026-04-24 13:28 | 23.55587 | 83.86635 | 39859 ft | 537 kts | 35° |
| 2026-04-24 13:28 | 23.61312 | 83.91773 | 39855 ft | 537 kts | 36° |
| 2026-04-24 13:29 | 23.67069 | 83.96947 | 39844 ft | 536 kts | 36° |
| 2026-04-24 13:29 | 23.72825 | 84.02124 | 39841 ft | 536 kts | 36° |
| 2026-04-24 13:30 | 23.78575 | 84.07302 | 39834 ft | 535 kts | 36° |
| 2026-04-24 13:30 | 23.84311 | 84.12473 | 39826 ft | 535 kts | 36° |
| 2026-04-24 13:31 | 23.90053 | 84.17656 | 39824 ft | 535 kts | 36° |
| 2026-04-24 13:31 | 23.95787 | 84.22838 | 39821 ft | 534 kts | 36° |
| 2026-04-24 13:32 | 24.01516 | 84.28023 | 39818 ft | 534 kts | 36° |
| 2026-04-24 13:32 | 24.07239 | 84.33207 | 39818 ft | 534 kts | 36° |
| 2026-04-24 13:33 | 24.12964 | 84.38375 | 39807 ft | 532 kts | 34° |
| 2026-04-24 13:33 | 24.16097 | 84.40474 | 39816 ft | 523 kts | 19° |
| 2026-04-24 13:33 | 24.19511 | 84.41675 | 39809 ft | 508 kts | 4° |
| 2026-04-24 13:34 | 24.22983 | 84.41889 | 39812 ft | 493 kts | 348° |
| 2026-04-24 13:34 | 24.26281 | 84.41135 | 39807 ft | 478 kts | 333° |
| 2026-04-24 13:34 | 24.29189 | 84.39491 | 39800 ft | 464 kts | 318° |
| 2026-04-24 13:34 | 24.31540 | 84.37144 | 39798 ft | 453 kts | 304° |
| 2026-04-24 13:35 | 24.33271 | 84.34303 | 39799 ft | 445 kts | 292° |
| 2026-04-24 13:35 | 24.34374 | 84.31161 | 39796 ft | 441 kts | 283° |
| 2026-04-24 13:35 | 24.35580 | 84.28051 | 39792 ft | 448 kts | 294° |
| 2026-04-24 13:35 | 24.37286 | 84.25172 | 39797 ft | 453 kts | 302° |
| 2026-04-24 13:36 | 24.41249 | 84.19763 | 39792 ft | 456 kts | 306° |
| 2026-04-24 13:36 | 24.45418 | 84.14499 | 39791 ft | 457 kts | 306° |
| 2026-04-24 13:37 | 24.49612 | 84.09247 | 39785 ft | 457 kts | 306° |
| 2026-04-24 13:37 | 24.53761 | 84.04003 | 39789 ft | 457 kts | 306° |
| 2026-04-24 13:38 | 24.57921 | 83.98713 | 39781 ft | 458 kts | 306° |
| 2026-04-24 13:38 | 24.62079 | 83.93412 | 39777 ft | 458 kts | 306° |
| 2026-04-24 13:39 | 24.66238 | 83.88105 | 39775 ft | 458 kts | 306° |
| 2026-04-24 13:39 | 24.70397 | 83.82795 | 39776 ft | 458 kts | 306° |
| 2026-04-24 13:40 | 24.74558 | 83.77476 | 39778 ft | 459 kts | 306° |
| 2026-04-24 13:40 | 24.78717 | 83.72153 | 39772 ft | 459 kts | 306° |
| 2026-04-24 13:41 | 24.82203 | 83.67689 | 39770 ft | 459 kts | 306° |
| 2026-04-24 13:41 | 24.86363 | 83.62355 | 39768 ft | 459 kts | 306° |
| 2026-04-24 13:42 | 24.90520 | 83.57017 | 39758 ft | 459 kts | 306° |
| 2026-04-24 13:42 | 24.94684 | 83.51665 | 39752 ft | 460 kts | 306° |
| 2026-04-24 13:43 | 24.98821 | 83.46344 | 39746 ft | 460 kts | 306° |
| 2026-04-24 13:43 | 25.02983 | 83.40982 | 39742 ft | 461 kts | 306° |
| 2026-04-24 13:44 | 25.07147 | 83.35612 | 39739 ft | 461 kts | 307° |
| 2026-04-24 13:44 | 25.11317 | 83.30230 | 39734 ft | 461 kts | 307° |
| 2026-04-24 13:45 | 25.15486 | 83.24841 | 39730 ft | 462 kts | 307° |
| 2026-04-24 13:45 | 25.19653 | 83.19450 | 39722 ft | 462 kts | 307° |
| 2026-04-24 13:46 | 25.23829 | 83.14040 | 39716 ft | 462 kts | 307° |
| 2026-04-24 13:46 | 25.28000 | 83.08629 | 39706 ft | 463 kts | 307° |
| 2026-04-24 13:47 | 25.32174 | 83.03209 | 39701 ft | 463 kts | 307° |
| 2026-04-24 13:47 | 25.36359 | 82.97769 | 39696 ft | 464 kts | 307° |
| 2026-04-24 13:48 | 25.40528 | 82.92310 | 39685 ft | 464 kts | 305° |
| 2026-04-24 13:48 | 25.43566 | 82.86113 | 39692 ft | 457 kts | 285° |
| 2026-04-24 13:49 | 25.44242 | 82.79235 | 39694 ft | 455 kts | 264° |
| 2026-04-24 13:49 | 25.43631 | 82.75802 | 39415 ft | 455 kts | 253° |
| 2026-04-24 13:49 | 25.42394 | 82.72566 | 38751 ft | 460 kts | 242° |
| 2026-04-24 13:50 | 25.40579 | 82.69690 | 37710 ft | 457 kts | 231° |
| 2026-04-24 13:50 | 25.38254 | 82.67266 | 36127 ft | 464 kts | 219° |
| 2026-04-24 13:50 | 25.35468 | 82.65418 | 34574 ft | 474 kts | 208° |
| 2026-04-24 13:50 | 25.32305 | 82.64235 | 32985 ft | 485 kts | 195° |
| 2026-04-24 13:51 | 25.28900 | 82.63884 | 32086 ft | 497 kts | 181° |
| 2026-04-24 13:51 | 25.25511 | 82.64342 | 31817 ft | 497 kts | 170° |
| 2026-04-24 13:51 | 25.22237 | 82.65567 | 31581 ft | 504 kts | 157° |
| 2026-04-24 13:51 | 25.19238 | 82.67543 | 31172 ft | 511 kts | 144° |
| 2026-04-24 13:52 | 25.16656 | 82.70267 | 30391 ft | 519 kts | 130° |
| 2026-04-24 13:52 | 25.14713 | 82.73631 | 29433 ft | 519 kts | 115° |
| 2026-04-24 13:52 | 25.13538 | 82.77368 | 28405 ft | 514 kts | 104° |
| 2026-04-24 13:52 | 25.12762 | 82.81231 | 27393 ft | 516 kts | 101° |
| 2026-04-24 13:53 | 25.12145 | 82.85100 | 26419 ft | 515 kts | 99° |
| 2026-04-24 13:53 | 25.11582 | 82.88996 | 25552 ft | 513 kts | 98° |
| 2026-04-24 13:53 | 25.11028 | 82.92835 | 24735 ft | 494 kts | 99° |
| 2026-04-24 13:53 | 25.10482 | 82.96471 | 23880 ft | 469 kts | 99° |
| 2026-04-24 13:54 | 25.09941 | 82.99933 | 22989 ft | 448 kts | 99° |
| 2026-04-24 13:54 | 25.09406 | 83.03245 | 22005 ft | 430 kts | 100° |
| 2026-04-24 13:54 | 25.08881 | 83.06429 | 21055 ft | 414 kts | 100° |
| 2026-04-24 13:54 | 25.08369 | 83.09497 | 20114 ft | 401 kts | 100° |
| 2026-04-24 13:55 | 25.07871 | 83.12471 | 19217 ft | 389 kts | 100° |
| 2026-04-24 13:55 | 25.07384 | 83.15370 | 18338 ft | 379 kts | 100° |
| 2026-04-24 13:55 | 25.06942 | 83.18201 | 17392 ft | 370 kts | 97° |
| 2026-04-24 13:55 | 25.06886 | 83.20873 | 16478 ft | 362 kts | 84° |
| 2026-04-24 13:56 | 25.07482 | 83.23628 | 15503 ft | 353 kts | 66° |
| 2026-04-24 13:56 | 25.08731 | 83.25870 | 14598 ft | 344 kts | 47° |
| 2026-04-24 13:56 | 25.10543 | 83.27522 | 13714 ft | 335 kts | 27° |
| 2026-04-24 13:56 | 25.12679 | 83.28420 | 12751 ft | 325 kts | 8° |
| 2026-04-24 13:57 | 25.14886 | 83.28408 | 11803 ft | 314 kts | 344° |
| 2026-04-24 13:57 | 25.16811 | 83.27408 | 10889 ft | 303 kts | 319° |
| 2026-04-24 13:57 | 25.18160 | 83.25699 | 10226 ft | 289 kts | 302° |
| 2026-04-24 13:57 | 25.19228 | 83.23898 | 9852 ft | 270 kts | 301° |
| 2026-04-24 13:58 | 25.20205 | 83.22225 | 9601 ft | 249 kts | 301° |
| 2026-04-24 13:58 | 25.21115 | 83.20677 | 9355 ft | 231 kts | 301° |
| 2026-04-24 13:58 | 25.21959 | 83.19248 | 9032 ft | 221 kts | 301° |
| 2026-04-24 13:58 | 25.22790 | 83.17843 | 8547 ft | 218 kts | 301° |
| 2026-04-24 13:59 | 25.23614 | 83.16452 | 8044 ft | 216 kts | 302° |
| 2026-04-24 13:59 | 25.24435 | 83.15071 | 7624 ft | 213 kts | 302° |
| 2026-04-24 13:59 | 25.25249 | 83.13704 | 7335 ft | 213 kts | 302° |
| 2026-04-24 13:59 | 25.26063 | 83.12336 | 7072 ft | 213 kts | 302° |
| 2026-04-24 14:00 | 25.26876 | 83.10973 | 6825 ft | 212 kts | 302° |
| 2026-04-24 14:00 | 25.27688 | 83.09611 | 6571 ft | 212 kts | 302° |
| 2026-04-24 14:00 | 25.28496 | 83.08255 | 6319 ft | 211 kts | 302° |
| 2026-04-24 14:00 | 25.29345 | 83.06927 | 6053 ft | 212 kts | 309° |
| 2026-04-24 14:01 | 25.30451 | 83.05908 | 5927 ft | 204 kts | 330° |
| 2026-04-24 14:01 | 25.31765 | 83.05406 | 5990 ft | 201 kts | 349° |
| 2026-04-24 14:01 | 25.33170 | 83.05423 | 5985 ft | 204 kts | 9° |
| 2026-04-24 14:01 | 25.34497 | 83.05992 | 5976 ft | 207 kts | 28° |
| 2026-04-24 14:02 | 25.35755 | 83.06785 | 5966 ft | 208 kts | 26° |
| 2026-04-24 14:02 | 25.37028 | 83.07544 | 5969 ft | 208 kts | 26° |
| 2026-04-24 14:02 | 25.38296 | 83.08319 | 5978 ft | 208 kts | 27° |
| 2026-04-24 14:02 | 25.39560 | 83.09110 | 5787 ft | 208 kts | 27° |
| 2026-04-24 14:03 | 25.40894 | 83.09696 | 5527 ft | 205 kts | 8° |
| 2026-04-24 14:03 | 25.42299 | 83.09793 | 5269 ft | 202 kts | 352° |
| 2026-04-24 14:03 | 25.43551 | 83.09194 | 4963 ft | 199 kts | 315° |
| 2026-04-24 14:03 | 25.44168 | 83.07875 | 4695 ft | 197 kts | 279° |
| 2026-04-24 14:04 | 25.44281 | 83.06371 | 4471 ft | 193 kts | 272° |
| 2026-04-24 14:04 | 25.44323 | 83.04964 | 4361 ft | 176 kts | 273° |
| 2026-04-24 14:04 | 25.44366 | 83.03673 | 4191 ft | 162 kts | 273° |
| 2026-04-24 14:04 | 25.44415 | 83.02451 | 3927 ft | 155 kts | 274° |
| 2026-04-24 14:05 | 25.44467 | 83.01284 | 3668 ft | 150 kts | 274° |
| 2026-04-24 14:05 | 25.44521 | 83.00143 | 3373 ft | 147 kts | 274° |
| 2026-04-24 14:05 | 25.44576 | 82.99013 | 2988 ft | 149 kts | 274° |
| 2026-04-24 14:05 | 25.44639 | 82.97845 | 2527 ft | 155 kts | 274° |
| 2026-04-24 14:06 | 25.44697 | 82.96661 | 2217 ft | 153 kts | 274° |
| 2026-04-24 14:06 | 25.44751 | 82.95519 | 2023 ft | 142 kts | 274° |
| 2026-04-24 14:06 | 25.44803 | 82.94452 | 1883 ft | 139 kts | 275° |
| 2026-04-24 14:06 | 25.44857 | 82.93365 | 1502 ft | 145 kts | 274° |
| 2026-04-24 14:07 | 25.44914 | 82.92234 | 1130 ft | 149 kts | 274° |
| 2026-04-24 14:07 | 25.44973 | 82.91078 | 806 ft | 150 kts | 274° |
| 2026-04-24 14:07 | 25.45026 | 82.89986 | 687 ft | 134 kts | 274° |
| 2026-04-24 14:07 | 25.45077 | 82.88997 | 547 ft | 127 kts | 274° |
| 2026-04-24 14:08 | 25.45126 | 82.88064 | 424 ft | 127 kts | 274° |
| 2026-04-24 14:08 | 25.45159 | 82.87208 | 303 ft | 117 kts | 272° |
| 2026-04-24 14:08 | 25.45207 | 82.86516 | 282 ft | 45 kts | 274° |
| 2026-04-24 14:08 | 25.45208 | 82.86205 | 283 ft | 39 kts | 274° |
| 2026-04-24 14:09 | 25.45226 | 82.85931 | 284 ft | 30 kts | 276° |
| 2026-04-24 14:09 | 25.45195 | 82.85789 | 285 ft | 10 kts | 204° |
| 2026-04-24 14:09 | 25.45000 | 82.85750 | 283 ft | 11 kts | 178° |
| 2026-04-24 14:09 | 25.44996 | 82.85750 | 283 ft | 0 kts | 178° |